Time;durP1;ratioP1;P1;durP2;ratioP2;P2;SDS_P1;SDS_P2;PMS_P1;PMS_P2;Temp;Humidity;BMP_temperature;BMP_pressure;BME280_temperature;BME280_humidity;BME280_pressure;Samples;Min_cycle;Max_cycle;Signal;HPM_P1;HPM_P2
2023/06/06 00:00:21;;;;;;;8.10;5.75;;;;;;;16.38;67.90;101795.56;4951254;29;20050;-48
2023/06/06 00:02:48;;;;;;;8.80;5.93;;;;;;;16.35;67.99;101793.50;4934210;29;20055;-49
2023/06/06 00:05:17;;;;;;;9.20;6.00;;;;;;;16.27;68.34;101794.47;4951574;29;20496;-45
2023/06/06 00:07:45;;;;;;;9.75;5.82;;;;;;;16.26;68.54;101801.22;4951415;29;20401;-45
2023/06/06 00:10:16;;;;;;;9.13;6.50;;;;;;;16.28;68.67;101801.66;4951334;28;20059;-44
2023/06/06 00:12:45;;;;;;;10.70;5.78;;;;;;;16.26;68.88;101795.63;4951366;29;20110;-47
2023/06/06 00:15:14;;;;;;;10.57;6.57;;;;;;;16.25;68.97;101805.22;4954415;28;20040;-44
2023/06/06 00:17:44;;;;;;;8.63;5.70;;;;;;;16.22;69.04;101799.50;4950638;28;20039;-45
2023/06/06 00:20:13;;;;;;;9.68;5.82;;;;;;;16.20;69.16;101802.66;4951167;29;20047;-44
2023/06/06 00:22:41;;;;;;;9.27;5.72;;;;;;;16.17;69.14;101808.97;4950974;29;20067;-46
2023/06/06 00:25:08;;;;;;;8.20;5.50;;;;;;;16.13;69.38;101801.66;4950638;28;20057;-49
2023/06/06 00:27:36;;;;;;;12.52;6.70;;;;;;;16.10;69.47;101797.59;4949078;29;20055;-51
2023/06/06 00:30:04;;;;;;;10.30;5.68;;;;;;;16.07;69.97;101798.28;4946463;29;20106;-44
2023/06/06 00:32:31;;;;;;;10.82;5.88;;;;;;;16.05;69.67;101795.06;4942527;29;20056;-44
2023/06/06 00:34:58;;;;;;;10.73;5.80;;;;;;;16.03;69.82;101797.41;4942860;29;20475;-47
2023/06/06 00:37:25;;;;;;;11.30;6.45;;;;;;;16.01;70.00;101796.94;4948649;28;20086;-48
2023/06/06 00:39:52;;;;;;;12.02;6.97;;;;;;;16.01;70.27;101794.16;4947706;28;20512;-44
2023/06/06 00:42:19;;;;;;;10.55;5.88;;;;;;;15.99;70.44;101796.47;4949785;29;20047;-46
2023/06/06 00:44:46;;;;;;;11.13;5.80;;;;;;;15.98;70.48;101799.63;4947973;28;20055;-44
2023/06/06 00:47:13;;;;;;;9.52;6.47;;;;;;;15.96;70.84;101802.78;4945448;29;20083;-44
2023/06/06 00:49:44;;;;;;;10.90;5.68;;;;;;;15.96;70.85;101794.41;4942853;29;20047;-45
2023/06/06 00:52:11;;;;;;;11.57;6.37;;;;;;;15.99;70.75;101802.06;4933571;29;20051;-44
2023/06/06 00:54:40;;;;;;;10.15;5.53;;;;;;;15.98;70.81;101800.44;4949423;29;20066;-44
2023/06/06 00:57:08;;;;;;;7.95;5.50;;;;;;;15.96;70.84;101790.81;4924011;29;20063;-45
2023/06/06 00:59:37;;;;;;;7.63;6.07;;;;;;;15.99;70.78;101802.06;4959637;28;20051;-46
2023/06/06 01:02:09;;;;;;;8.27;4.93;;;;;;;16.03;70.69;101802.97;4953254;28;20062;-46
2023/06/06 01:04:40;;;;;;;8.50;5.88;;;;;;;16.04;70.61;101803.81;4938756;29;20561;-44
2023/06/06 01:07:09;;;;;;;7.72;5.20;;;;;;;16.00;70.50;101806.47;4949490;29;20039;-45
2023/06/06 01:09:37;;;;;;;8.73;5.95;;;;;;;15.95;70.68;101803.94;4940189;29;20047;-46
2023/06/06 01:12:27;;;;;;;9.43;6.32;;;;;;;15.94;71.06;101799.53;4950417;29;20047;-44
2023/06/06 01:15:13;;;;;;;12.75;6.25;;;;;;;15.88;71.12;101800.16;4950491;29;20576;-45
2023/06/06 01:17:41;;;;;;;9.85;5.80;;;;;;;15.85;71.04;101801.69;4939710;29;20043;-44
2023/06/06 01:20:11;;;;;;;9.73;6.60;;;;;;;15.79;71.46;101809.50;4950284;29;20502;-44
2023/06/06 01:22:43;;;;;;;11.07;6.22;;;;;;;15.73;71.56;101804.50;4949560;29;20059;-45
2023/06/06 01:25:12;;;;;;;8.18;5.97;;;;;;;15.66;71.73;101809.88;4950065;29;20059;-44
2023/06/06 01:27:39;;;;;;;9.00;5.40;;;;;;;15.63;72.20;101805.00;4949566;28;20043;-44
2023/06/06 01:30:06;;;;;;;5.90;4.97;;;;;;;15.60;72.14;101800.13;4951588;28;20046;-46
2023/06/06 01:33:02;;;;;;;8.82;6.15;;;;;;;15.55;72.56;101792.81;4953912;29;20517;-44
2023/06/06 01:35:42;;;;;;;9.25;5.97;;;;;;;15.54;72.58;101793.97;4954065;29;20340;-50
2023/06/06 01:38:20;;;;;;;11.60;6.88;;;;;;;15.48;72.66;101795.41;4953851;28;20078;-44
2023/06/06 01:40:51;;;;;;;8.57;6.63;;;;;;;15.45;72.91;101795.25;4935933;29;20516;-44
2023/06/06 01:43:21;;;;;;;9.23;6.78;;;;;;;15.41;73.10;101785.97;4953646;29;20130;-44
2023/06/06 01:45:50;;;;;;;10.10;7.22;;;;;;;15.39;73.14;101788.28;4936795;29;20071;-44
2023/06/06 01:48:18;;;;;;;13.32;6.88;;;;;;;15.36;73.21;101794.56;4953789;29;20051;-48
2023/06/06 01:50:46;;;;;;;8.95;6.50;;;;;;;15.36;73.25;101791.78;4953669;29;20224;-46
2023/06/06 01:53:13;;;;;;;9.80;6.30;;;;;;;15.34;73.29;101791.31;4953601;28;20051;-44
2023/06/06 01:55:41;;;;;;;11.60;7.28;;;;;;;15.30;73.34;101790.41;4952792;29;20059;-45
2023/06/06 01:58:08;;;;;;;11.82;7.65;;;;;;;15.23;73.57;101786.22;4946580;29;20039;-45
2023/06/06 02:00:35;;;;;;;13.30;8.57;;;;;;;15.20;73.66;101781.34;4953290;29;20082;-44
2023/06/06 02:03:02;;;;;;;13.00;8.68;;;;;;;15.19;73.97;101776.94;4934292;29;20062;-44
2023/06/06 02:05:29;;;;;;;11.82;9.05;;;;;;;15.19;74.01;101779.75;4934087;29;20060;-45
2023/06/06 02:07:56;;;;;;;13.48;9.15;;;;;;;15.19;73.98;101773.34;4934117;29;20138;-44
2023/06/06 02:10:23;;;;;;;12.13;9.70;;;;;;;15.18;74.03;101777.28;4934248;29;20082;-44
2023/06/06 02:12:50;;;;;;;12.52;8.43;;;;;;;15.16;74.17;101776.84;4933934;29;20142;-45
2023/06/06 02:15:17;;;;;;;13.25;9.13;;;;;;;15.19;73.97;101776.94;4933039;29;20185;-46
2023/06/06 02:17:43;;;;;;;12.98;8.98;;;;;;;15.22;74.11;101776.22;4934085;29;20095;-45
2023/06/06 02:20:11;;;;;;;12.73;8.90;;;;;;;15.20;74.23;101784.13;4933873;29;20052;-51
2023/06/06 02:22:38;;;;;;;11.50;7.82;;;;;;;15.16;74.27;101780.44;4934103;29;20127;-44
2023/06/06 02:25:06;;;;;;;11.73;7.88;;;;;;;15.13;74.53;101785.91;4933159;29;20043;-44
2023/06/06 02:27:35;;;;;;;11.10;7.25;;;;;;;15.09;74.67;101785.00;4922597;29;20054;-44
2023/06/06 02:30:07;;;;;;;12.60;7.80;;;;;;;15.09;74.79;101785.00;4933642;29;20048;-44
2023/06/06 02:32:34;;;;;;;12.25;7.53;;;;;;;15.11;74.68;101775.09;4932488;29;20048;-44
2023/06/06 02:35:03;;;;;;;9.25;7.50;;;;;;;15.09;74.79;101785.78;4926615;29;20083;-51
2023/06/06 02:37:30;;;;;;;10.73;7.32;;;;;;;15.06;74.96;101778.09;4925504;29;20044;-48
2023/06/06 02:39:58;;;;;;;7.93;5.43;;;;;;;15.00;75.14;101782.31;4937029;29;20047;-45
2023/06/06 02:42:25;;;;;;;11.43;7.60;;;;;;;14.99;75.39;101780.69;4932470;29;20051;-45
2023/06/06 02:44:52;;;;;;;13.05;6.97;;;;;;;15.02;75.24;101770.78;4932045;29;20048;-45
2023/06/06 02:47:18;;;;;;;10.25;6.00;;;;;;;15.05;75.31;101781.25;4930643;29;20051;-44
2023/06/06 02:49:45;;;;;;;10.15;6.13;;;;;;;15.02;75.17;101777.19;4931292;29;20044;-46
2023/06/06 02:52:13;;;;;;;9.07;6.28;;;;;;;15.07;75.25;101774.16;4932016;29;20047;-45
2023/06/06 02:54:41;;;;;;;13.23;6.50;;;;;;;15.12;74.84;101779.50;4931454;29;20064;-50
2023/06/06 02:57:08;;;;;;;12.80;6.78;;;;;;;15.05;74.96;101772.88;4931957;29;20056;-46
2023/06/06 02:59:35;;;;;;;9.60;7.05;;;;;;;15.02;75.10;101773.59;4927537;29;20056;-49
2023/06/06 03:02:03;;;;;;;10.35;5.30;;;;;;;14.96;75.23;101770.22;4979625;23;20090;-44
2023/06/06 03:04:33;;;;;;;7.30;5.55;;;;;;;14.91;75.48;101767.66;4949580;29;20051;-46
2023/06/06 03:07:00;;;;;;;9.80;6.82;;;;;;;14.89;75.50;101767.22;4944667;29;20110;-44
2023/06/06 03:09:27;;;;;;;6.95;4.95;;;;;;;14.87;75.45;101769.53;4950476;29;20580;-44
2023/06/06 03:11:54;;;;;;;7.10;5.30;;;;;;;14.86;75.52;101755.94;4949494;28;20061;-45
2023/06/06 03:14:21;;;;;;;9.63;6.20;;;;;;;14.80;75.66;101758.16;4945463;28;20564;-50
2023/06/06 03:16:51;;;;;;;8.85;6.35;;;;;;;14.76;75.77;101756.41;4950101;29;20519;-44
2023/06/06 03:19:18;;;;;;;9.13;5.53;;;;;;;14.73;75.64;101757.94;4937776;29;20036;-44
2023/06/06 03:21:45;;;;;;;6.75;5.95;;;;;;;14.69;75.84;101748.66;4948019;28;20501;-50
2023/06/06 03:24:13;;;;;;;12.65;8.10;;;;;;;14.66;76.08;101752.13;4949667;28;20057;-44
2023/06/06 03:26:40;;;;;;;10.73;6.68;;;;;;;14.64;76.11;101743.28;4948263;28;20106;-46
2023/06/06 03:29:07;;;;;;;10.35;6.10;;;;;;;14.60;76.16;101745.97;4946972;28;20383;-44
2023/06/06 03:31:34;;;;;;;9.27;6.13;;;;;;;14.58;76.32;101748.28;4948921;28;20050;-47
2023/06/06 03:34:01;;;;;;;9.52;5.78;;;;;;;14.55;76.41;101748.16;4950596;29;20112;-49
2023/06/06 03:36:32;;;;;;;8.00;5.75;;;;;;;14.54;76.27;101749.31;4949641;29;20043;-45
2023/06/06 03:39:00;;;;;;;7.97;6.15;;;;;;;14.54;76.40;101743.75;4943523;29;20490;-44
2023/06/06 03:41:27;;;;;;;11.20;5.97;;;;;;;14.53;76.34;101745.72;4947055;28;20047;-44
2023/06/06 03:43:54;;;;;;;11.20;5.50;;;;;;;14.52;76.25;101741.31;4949358;29;20082;-44
2023/06/06 03:46:21;;;;;;;9.23;4.88;;;;;;;14.48;76.43;101742.38;4945959;28;20402;-44
2023/06/06 03:48:48;;;;;;;8.68;5.43;;;;;;;14.42;76.51;101743.75;4949504;29;20450;-44
2023/06/06 03:51:15;;;;;;;9.52;6.05;;;;;;;14.42;76.59;101743.75;4942329;29;20572;-46
2023/06/06 03:53:42;;;;;;;7.82;5.78;;;;;;;14.40;76.55;101737.72;4959255;28;20057;-44
2023/06/06 03:56:09;;;;;;;10.95;5.07;;;;;;;14.35;76.56;101740.72;4949841;28;20039;-45
2023/06/06 03:58:36;;;;;;;9.95;6.68;;;;;;;14.31;76.74;101745.31;4951461;29;20039;-44
2023/06/06 04:01:03;;;;;;;7.78;5.80;;;;;;;14.32;76.87;101736.63;4933923;29;20043;-45
2023/06/06 04:03:36;;;;;;;14.65;6.63;;;;;;;14.31;76.82;101736.97;4951364;29;20050;-45
2023/06/06 04:06:05;;;;;;;11.18;6.15;;;;;;;14.29;76.96;101734.53;4951254;29;20397;-44
2023/06/06 04:08:37;;;;;;;10.55;6.20;;;;;;;14.29;76.87;101739.28;4951680;29;20176;-44
2023/06/06 04:11:04;;;;;;;6.53;5.55;;;;;;;14.24;77.07;101736.72;4921787;29;20039;-46
2023/06/06 04:13:31;;;;;;;10.55;5.95;;;;;;;14.24;77.10;101736.72;4950059;29;20142;-44
2023/06/06 04:15:58;;;;;;;7.43;4.85;;;;;;;14.25;77.23;101738.34;4950812;29;20098;-44
2023/06/06 04:18:25;;;;;;;9.25;5.78;;;;;;;14.23;77.14;101740.66;4934007;29;20062;-45
2023/06/06 04:20:52;;;;;;;8.68;5.35;;;;;;;14.20;77.15;101736.59;4949872;29;20055;-44
2023/06/06 04:23:20;;;;;;;9.43;6.03;;;;;;;14.20;77.08;101733.81;4942943;29;20106;-45
2023/06/06 04:25:48;;;;;;;8.00;5.93;;;;;;;14.21;77.08;101734.63;4939303;29;20595;-44
2023/06/06 04:28:18;;;;;;;8.30;5.43;;;;;;;14.24;76.92;101736.72;4946261;29;20133;-44
2023/06/06 04:30:47;;;;;;;7.70;5.43;;;;;;;14.25;76.91;101743.91;4943372;29;20053;-44
2023/06/06 04:33:15;;;;;;;9.05;6.00;;;;;;;14.26;76.74;101739.97;4947779;29;20043;-44
2023/06/06 04:35:42;;;;;;;9.05;6.35;;;;;;;14.25;76.92;101739.16;4948507;29;20111;-45
2023/06/06 04:38:10;;;;;;;13.75;6.10;;;;;;;14.27;76.79;101741.63;4943045;28;20070;-45
2023/06/06 04:40:40;;;;;;;10.98;6.97;;;;;;;14.25;76.99;101739.16;4932617;29;20118;-44
2023/06/06 04:43:27;;;;;;;11.18;6.32;;;;;;;14.24;76.86;101742.31;4950074;29;20099;-44
2023/06/06 04:45:57;;;;;;;12.02;5.85;;;;;;;14.25;77.13;101738.34;4946216;29;20050;-49
2023/06/06 04:48:25;;;;;;;10.35;5.72;;;;;;;14.26;77.09;101737.19;4947309;29;20043;-45
2023/06/06 04:50:53;;;;;;;9.32;6.50;;;;;;;14.28;77.18;101743.22;4947073;28;20142;-44
2023/06/06 04:53:20;;;;;;;11.70;6.75;;;;;;;14.27;77.12;101736.06;4953313;28;20039;-44
2023/06/06 04:55:48;;;;;;;9.52;6.25;;;;;;;14.29;77.27;101740.13;4945906;29;20071;-47
2023/06/06 04:58:16;;;;;;;9.13;5.43;;;;;;;14.31;77.17;101736.97;4931140;29;20051;-44
2023/06/06 05:00:45;;;;;;;8.82;6.35;;;;;;;14.33;77.41;101738.28;4946010;29;20044;-47
2023/06/06 05:03:16;;;;;;;9.45;5.60;;;;;;;14.33;77.31;101740.25;4947825;28;20098;-44
2023/06/06 05:05:43;;;;;;;9.88;5.60;;;;;;;14.32;77.31;101745.00;4952026;28;20039;-44
2023/06/06 05:08:12;;;;;;;8.52;5.32;;;;;;;14.38;77.49;101748.38;4957221;28;20083;-45
2023/06/06 05:10:39;;;;;;;9.68;6.22;;;;;;;14.42;77.28;101744.56;4946093;29;20043;-46
2023/06/06 05:13:06;;;;;;;9.30;6.75;;;;;;;14.43;77.69;101754.53;4953358;28;20097;-47
2023/06/06 05:15:33;;;;;;;11.73;7.10;;;;;;;14.47;77.68;101749.09;4954286;29;20567;-44
2023/06/06 05:18:00;;;;;;;13.40;7.20;;;;;;;14.48;77.79;101743.16;4954465;29;20086;-45
2023/06/06 05:20:27;;;;;;;11.70;7.25;;;;;;;14.50;77.82;101749.22;4954012;29;20699;-44
2023/06/06 05:22:53;;;;;;;11.35;5.93;;;;;;;14.52;77.89;101746.06;4944277;29;20051;-45
2023/06/06 05:25:20;;;;;;;9.88;6.03;;;;;;;14.53;77.84;101747.72;4953361;29;20074;-45
2023/06/06 05:27:48;;;;;;;10.45;7.25;;;;;;;14.57;77.94;101746.66;4936659;29;20679;-45
2023/06/06 05:30:15;;;;;;;12.05;5.78;;;;;;;14.62;78.07;101743.63;4954587;29;20047;-47
2023/06/06 05:32:42;;;;;;;8.98;5.93;;;;;;;14.66;78.11;101746.56;4953900;28;20062;-46
2023/06/06 05:35:09;;;;;;;12.02;6.38;;;;;;;14.69;78.16;101743.06;4953924;29;20043;-45
2023/06/06 05:37:35;;;;;;;11.13;6.40;;;;;;;14.72;78.21;101742.34;4953167;29;20059;-44
2023/06/06 05:40:03;;;;;;;10.13;5.93;;;;;;;14.76;78.24;101743.28;4952818;29;20074;-45
2023/06/06 05:42:29;;;;;;;8.90;6.07;;;;;;;14.81;78.33;101745.03;4954079;29;20136;-44
2023/06/06 05:44:56;;;;;;;11.23;6.45;;;;;;;14.85;78.44;101748.75;4953969;29;20126;-44
2023/06/06 05:47:23;;;;;;;10.45;5.47;;;;;;;14.89;78.48;101750.47;4953985;29;20043;-45
2023/06/06 05:49:50;;;;;;;10.68;5.40;;;;;;;14.93;78.59;101751.41;4953971;28;20505;-44
2023/06/06 05:52:17;;;;;;;10.93;6.82;;;;;;;14.98;78.51;101748.41;4953695;29;20035;-46
2023/06/06 05:54:44;;;;;;;13.77;6.10;;;;;;;15.03;78.45;101748.16;4949626;29;20035;-46
2023/06/06 05:57:22;;;;;;;9.32;5.88;;;;;;;15.09;78.38;101757.09;4945120;28;20757;-45
2023/06/06 05:59:49;;;;;;;10.18;5.22;;;;;;;15.13;78.58;101758.81;4953348;29;20086;-48
2023/06/06 06:02:16;;;;;;;9.75;6.25;;;;;;;15.18;78.47;101749.38;4953055;29;20138;-47
2023/06/06 06:04:45;;;;;;;8.00;5.72;;;;;;;15.20;78.62;101753.44;4936083;29;20409;-44
2023/06/06 06:07:13;;;;;;;11.77;5.70;;;;;;;15.24;78.67;101759.16;4953479;29;20110;-45
2023/06/06 06:09:40;;;;;;;12.93;5.78;;;;;;;15.27;78.92;101763.22;4953884;29;20050;-47
2023/06/06 06:12:07;;;;;;;10.32;5.65;;;;;;;15.30;78.80;101762.50;4931826;29;20058;-45
2023/06/06 06:14:34;;;;;;;7.38;6.13;;;;;;;15.31;78.74;101764.13;4953275;29;20075;-44
2023/06/06 06:17:01;;;;;;;9.75;5.07;;;;;;;15.32;78.89;101766.56;4952529;28;20094;-45
2023/06/06 06:19:28;;;;;;;10.10;5.97;;;;;;;15.33;78.95;101767.38;4951879;29;20054;-48
2023/06/06 06:21:54;;;;;;;9.82;5.18;;;;;;;15.34;79.03;101761.44;4952966;29;20082;-44
2023/06/06 06:24:21;;;;;;;12.55;6.53;;;;;;;15.36;79.11;101761.91;4953032;29;20051;-45
2023/06/06 06:26:51;;;;;;;8.73;5.65;;;;;;;15.34;79.24;101758.66;4952023;28;20505;-47
2023/06/06 06:29:18;;;;;;;10.32;6.03;;;;;;;15.35;79.25;101767.84;4951473;29;20043;-44
2023/06/06 06:31:44;;;;;;;11.38;6.13;;;;;;;15.38;79.20;101755.97;4946267;29;20634;-45
2023/06/06 06:34:11;;;;;;;9.52;6.30;;;;;;;15.45;79.32;101770.13;4944524;29;20050;-47
2023/06/06 06:36:38;;;;;;;10.35;6.30;;;;;;;15.48;79.45;101761.91;4942894;28;20053;-48
2023/06/06 06:39:05;;;;;;;12.88;7.10;;;;;;;15.52;79.20;101767.56;4952968;28;20082;-41
2023/06/06 06:41:32;;;;;;;14.40;6.10;;;;;;;15.55;79.54;101764.09;4952606;28;20493;-45
2023/06/06 06:43:58;;;;;;;11.40;5.97;;;;;;;15.61;79.49;101757.09;4950234;29;20505;-45
2023/06/06 06:46:25;;;;;;;9.52;6.05;;;;;;;15.64;79.63;101762.78;4939752;28;20046;-44
2023/06/06 06:48:52;;;;;;;13.32;5.30;;;;;;;15.69;79.39;101762.53;4947319;29;20098;-51
2023/06/06 06:51:19;;;;;;;13.95;6.55;;;;;;;15.80;79.56;101765.63;4946951;29;20091;-45
2023/06/06 06:53:49;;;;;;;16.33;6.45;;;;;;;15.91;79.31;101766.75;4949198;29;20040;-47
2023/06/06 06:56:16;;;;;;;12.07;5.43;;;;;;;16.05;79.39;101771.88;4947398;28;20054;-45
2023/06/06 06:58:43;;;;;;;15.35;6.55;;;;;;;16.16;79.25;101785.00;4944591;29;20039;-49
2023/06/06 07:01:10;;;;;;;10.77;5.60;;;;;;;16.22;79.17;101772.38;4948646;29;20480;-46
2023/06/06 07:03:37;;;;;;;12.63;6.07;;;;;;;16.28;79.05;101775.72;4946114;29;20058;-51
2023/06/06 07:06:05;;;;;;;9.13;5.88;;;;;;;16.32;79.13;101777.44;4929554;29;20122;-44
2023/06/06 07:08:31;;;;;;;11.27;5.25;;;;;;;16.38;79.25;101781.59;4951400;28;20054;-45
2023/06/06 07:10:58;;;;;;;9.00;5.10;;;;;;;16.48;79.54;101785.03;4933815;29;20570;-45
2023/06/06 07:13:25;;;;;;;7.88;5.82;;;;;;;16.56;79.76;101782.09;4952285;29;20047;-50
2023/06/06 07:15:52;;;;;;;8.88;5.07;;;;;;;16.63;80.11;101792.63;4950459;29;20441;-44
2023/06/06 07:18:19;;;;;;;8.85;6.15;;;;;;;16.67;80.32;101787.94;4952399;29;20134;-48
2023/06/06 07:20:45;;;;;;;7.95;5.90;;;;;;;16.78;80.83;101781.47;4951188;28;20094;-45
2023/06/06 07:23:12;;;;;;;12.02;5.45;;;;;;;16.92;81.38;101786.56;4952223;29;20150;-48
2023/06/06 07:25:40;;;;;;;10.70;5.63;;;;;;;17.06;81.50;101784.09;4949603;28;20504;-45
2023/06/06 07:28:10;;;;;;;10.48;5.55;;;;;;;17.22;81.80;101787.69;4951251;28;20048;-43
2023/06/06 07:30:37;;;;;;;10.77;5.88;;;;;;;17.36;82.34;101781.59;4939398;29;20058;-43
2023/06/06 07:33:04;;;;;;;7.57;4.93;;;;;;;17.49;82.94;101772.72;4951568;29;20051;-43
2023/06/06 07:35:32;;;;;;;7.45;4.82;;;;;;;17.73;83.51;101784.81;4951930;29;20047;-43
2023/06/06 07:38:00;;;;;;;11.13;5.10;;;;;;;17.98;83.05;101786.13;4950932;29;20115;-46
2023/06/06 07:40:27;;;;;;;10.38;5.15;;;;;;;18.22;82.95;101786.63;4951735;29;20098;-43
2023/06/06 07:42:54;;;;;;;11.32;5.63;;;;;;;18.46;83.26;101791.06;4952007;29;20101;-43
2023/06/06 07:45:21;;;;;;;12.75;4.82;;;;;;;18.72;82.62;101791.16;4934483;29;20057;-45
2023/06/06 07:47:48;;;;;;;5.82;3.88;;;;;;;19.13;81.61;101802.63;4952060;29;20055;-45
2023/06/06 07:50:17;;;;;;;10.57;3.97;;;;;;;19.64;80.62;101788.94;4951672;29;20051;-44
2023/06/06 07:52:46;;;;;;;8.13;4.60;;;;;;;20.20;78.58;101788.81;4952114;29;20051;-44
2023/06/06 07:55:13;;;;;;;5.90;4.50;;;;;;;20.83;75.35;101800.72;4949162;29;20123;-43
2023/06/06 07:57:40;;;;;;;8.60;4.68;;;;;;;21.36;72.11;101800.31;4951385;29;20039;-44
2023/06/06 08:00:12;;;;;;;4.55;3.85;;;;;;;21.89;69.11;101806.25;4951814;29;20070;-43
2023/06/06 08:02:42;;;;;;;5.55;4.18;;;;;;;22.41;66.99;101809.22;4947829;28;20109;-44
2023/06/06 08:05:10;;;;;;;6.13;3.47;;;;;;;22.86;63.92;101799.19;4951633;29;20043;-43
2023/06/06 08:07:40;;;;;;;4.82;4.13;;;;;;;23.04;61.69;101811.28;4949491;29;20047;-43
2023/06/06 08:10:08;;;;;;;5.78;3.72;;;;;;;23.37;60.02;101807.25;4951457;29;20043;-44
2023/06/06 08:12:35;;;;;;;7.15;4.13;;;;;;;23.56;57.89;101812.41;4941265;29;20046;-43
2023/06/06 08:15:04;;;;;;;6.05;3.97;;;;;;;23.68;56.28;101810.38;4950477;29;20493;-44
2023/06/06 08:17:30;;;;;;;7.07;4.35;;;;;;;23.93;55.70;101808.28;4951505;29;20130;-43
2023/06/06 08:19:57;;;;;;;12.25;6.30;;;;;;;24.19;54.33;101804.94;4946084;29;20535;-44
2023/06/06 08:22:27;;;;;;;9.20;4.68;;;;;;;24.37;53.26;101799.97;4942926;29;20070;-43
2023/06/06 08:24:54;;;;;;;11.40;4.85;;;;;;;24.37;52.37;101822.59;4949337;29;20054;-44
2023/06/06 08:27:21;;;;;;;6.88;4.38;;;;;;;24.53;51.28;101810.78;4938893;29;20043;-43
2023/06/06 08:29:48;;;;;;;9.25;4.82;;;;;;;24.55;50.84;101819.66;4945234;29;20047;-45
2023/06/06 08:32:15;;;;;;;9.55;4.85;;;;;;;24.56;50.29;101822.09;4951252;29;20039;-43
2023/06/06 08:34:42;;;;;;;11.75;4.95;;;;;;;24.64;49.80;101823.66;4949926;28;20054;-43
2023/06/06 08:37:09;;;;;;;7.03;4.40;;;;;;;24.72;49.33;101822.38;4945326;29;20091;-45
2023/06/06 08:39:36;;;;;;;9.55;4.82;;;;;;;24.87;48.95;101825.09;4944906;29;20723;-44
2023/06/06 08:42:07;;;;;;;7.95;4.70;;;;;;;24.91;48.30;101815.38;4950650;29;20039;-45
2023/06/06 08:44:34;;;;;;;8.43;4.97;;;;;;;24.76;47.56;101814.63;4949413;28;20102;-44
2023/06/06 08:47:02;;;;;;;14.43;4.90;;;;;;;24.59;47.56;101818.44;4939382;29;20079;-44
2023/06/06 08:49:31;;;;;;;8.85;4.45;;;;;;;24.41;47.19;101820.53;4949754;28;20049;-44
2023/06/06 08:51:59;;;;;;;12.60;5.10;;;;;;;24.37;46.94;101814.13;4950786;29;20070;-44
2023/06/06 08:54:27;;;;;;;9.68;4.20;;;;;;;24.31;46.70;101815.75;4950419;29;20399;-44
2023/06/06 08:56:55;;;;;;;11.50;4.97;;;;;;;24.30;46.42;101819.03;4950635;29;20043;-43
2023/06/06 08:59:22;;;;;;;8.73;4.20;;;;;;;24.35;46.30;101821.41;4950455;29;20562;-47
2023/06/06 09:01:51;;;;;;;8.52;4.05;;;;;;;24.29;46.07;101823.88;4949538;29;20106;-43
2023/06/06 09:04:20;;;;;;;11.18;4.13;;;;;;;24.05;46.23;101819.13;4950138;29;20497;-43
2023/06/06 09:06:50;;;;;;;9.70;4.00;;;;;;;24.23;46.11;101825.50;4949618;28;20501;-43
2023/06/06 09:09:19;;;;;;;9.05;3.45;;;;;;;24.59;45.78;101826.94;4950555;29;20039;-44
2023/06/06 09:11:46;;;;;;;6.78;3.55;;;;;;;24.86;45.20;101823.50;4949874;29;20054;-49
2023/06/06 09:14:12;;;;;;;6.82;3.60;;;;;;;24.92;44.68;101827.50;4930540;29;20685;-44
2023/06/06 09:16:41;;;;;;;10.38;3.90;;;;;;;25.00;44.62;101823.38;4944173;29;20505;-43
2023/06/06 09:19:08;;;;;;;7.95;4.28;;;;;;;24.89;44.01;101825.53;4948938;29;20102;-43
2023/06/06 09:21:36;;;;;;;10.35;3.58;;;;;;;24.80;43.47;101832.47;4944711;29;20560;-44
2023/06/06 09:24:04;;;;;;;7.03;3.47;;;;;;;24.69;43.10;101831.69;4948117;28;20043;-44
2023/06/06 09:26:33;;;;;;;11.45;3.97;;;;;;;24.44;42.75;101828.22;4950187;29;20055;-48
2023/06/06 09:29:12;;;;;;;9.88;4.32;;;;;;;24.37;43.14;101831.09;4949329;29;20482;-43
2023/06/06 09:31:40;;;;;;;10.82;3.83;;;;;;;24.36;43.14;101828.69;4950380;29;20047;-45
2023/06/06 09:34:08;;;;;;;6.80;4.38;;;;;;;24.40;43.23;101830.28;4948154;29;20051;-44
2023/06/06 09:36:42;;;;;;;6.07;3.88;;;;;;;24.39;43.22;101833.50;4938146;29;20098;-43
2023/06/06 09:39:14;;;;;;;10.48;4.28;;;;;;;24.29;42.87;101835.19;4943181;29;20051;-48
2023/06/06 09:41:46;;;;;;;10.02;4.10;;;;;;;24.10;43.22;101838.50;4936840;29;20047;-48
2023/06/06 09:44:24;;;;;;;10.48;5.72;;;;;;;24.04;43.48;101834.50;4935973;28;20058;-48
2023/06/06 09:47:02;;;;;;;8.90;5.00;;;;;;;23.69;43.76;101845.94;4938112;29;20047;-43
2023/06/06 09:49:36;;;;;;;10.00;5.68;;;;;;;22.97;44.15;101841.56;4940629;28;20055;-43
2023/06/06 09:52:05;;;;;;;7.80;5.00;;;;;;;22.86;44.73;101844.38;4950518;29;20718;-47
2023/06/06 09:54:33;;;;;;;11.20;5.40;;;;;;;22.71;44.58;101847.59;4952279;29;20071;-43
2023/06/06 09:57:06;;;;;;;8.38;5.78;;;;;;;22.35;45.18;101846.69;4953723;29;20055;-43
2023/06/06 09:59:33;;;;;;;11.77;5.97;;;;;;;22.30;45.68;101845.06;4952905;29;20043;-46
2023/06/06 10:02:07;;;;;;;14.10;6.80;;;;;;;22.44;45.66;101849.94;4952442;29;20485;-43
2023/06/06 10:04:35;;;;;;;11.50;7.35;;;;;;;22.38;45.83;101843.06;4951070;29;20070;-43
2023/06/06 10:07:06;;;;;;;18.50;8.20;;;;;;;22.34;46.20;101845.91;4949473;29;20572;-43
2023/06/06 10:09:33;;;;;;;13.10;7.30;;;;;;;22.59;45.85;101840.28;4952178;29;20043;-43
2023/06/06 10:12:01;;;;;;;11.73;7.57;;;;;;;22.66;45.78;101851.63;4951057;29;20486;-43
2023/06/06 10:14:28;;;;;;;14.00;7.97;;;;;;;22.51;46.17;101852.75;4952734;29;20466;-43
2023/06/06 10:16:55;;;;;;;12.93;7.57;;;;;;;22.73;46.61;101850.81;4953205;29;20086;-43
2023/06/06 10:19:24;;;;;;;9.05;6.97;;;;;;;22.94;45.73;101842.38;4950519;29;20053;-48
2023/06/06 10:21:52;;;;;;;14.70;8.18;;;;;;;22.87;45.58;101845.19;4950243;29;20122;-48
2023/06/06 10:24:19;;;;;;;13.25;8.18;;;;;;;22.71;45.60;101837.13;4948676;29;20039;-44
2023/06/06 10:26:55;;;;;;;11.95;7.65;;;;;;;22.71;45.88;101839.94;4951690;29;20560;-44
2023/06/06 10:29:34;;;;;;;13.70;8.23;;;;;;;22.56;46.12;101840.28;4952579;29;20050;-43
2023/06/06 10:32:12;;;;;;;15.77;8.98;;;;;;;22.29;46.00;101832.16;4953344;29;20061;-43
2023/06/06 10:34:43;;;;;;;13.05;8.07;;;;;;;21.86;46.92;101841.69;4952041;29;20051;-44
2023/06/06 10:37:15;;;;;;;13.48;8.55;;;;;;;21.61;47.52;101849.16;4946777;29;20070;-43
2023/06/06 10:39:46;;;;;;;13.98;8.32;;;;;;;21.57;47.20;101845.50;4953139;29;20055;-47
2023/06/06 10:42:14;;;;;;;15.02;8.85;;;;;;;21.12;47.91;101842.00;4953139;29;20472;-44
2023/06/06 10:44:54;;;;;;;13.02;8.13;;;;;;;21.12;48.62;101846.81;4945536;29;20051;-43
2023/06/06 10:47:23;;;;;;;13.68;8.68;;;;;;;21.28;48.71;101849.34;4945238;29;20039;-47
2023/06/06 10:50:02;;;;;;;11.73;7.85;;;;;;;21.28;49.01;101846.53;4952386;29;20055;-43
2023/06/06 10:52:29;;;;;;;13.82;8.77;;;;;;;21.21;48.97;101845.28;4951638;29;20051;-43
2023/06/06 10:54:59;;;;;;;14.93;8.75;;;;;;;20.87;48.80;101843.75;4951980;29;20047;-43
2023/06/06 10:57:26;;;;;;;13.27;9.38;;;;;;;20.53;49.26;101850.66;4952512;29;20062;-50
2023/06/06 10:59:55;;;;;;;15.13;8.02;;;;;;;20.04;50.03;101846.06;4949709;29;20047;-43
2023/06/06 11:02:34;;;;;;;11.38;7.07;;;;;;;19.76;50.58;101848.50;4951400;28;20532;-42
2023/06/06 11:05:02;;;;;;;12.10;8.55;;;;;;;19.76;51.04;101848.50;4949716;29;20051;-45
2023/06/06 11:07:31;;;;;;;11.65;7.43;;;;;;;19.72;51.72;101844.88;4948305;29;20564;-43
2023/06/06 11:09:58;;;;;;;15.35;8.55;;;;;;;19.72;51.45;101844.88;4951885;29;20039;-44
2023/06/06 11:12:28;;;;;;;13.77;9.32;;;;;;;19.37;52.25;101847.13;4951845;29;20062;-44
2023/06/06 11:15:07;;;;;;;12.75;7.82;;;;;;;19.11;52.79;101841.50;4952072;29;20047;-43
2023/06/06 11:18:03;;;;;;;12.82;8.55;;;;;;;19.08;52.98;101840.25;4950578;29;20405;-43
2023/06/06 11:20:42;;;;;;;14.80;8.43;;;;;;;18.93;53.18;101841.19;4950226;29;20138;-45
2023/06/06 11:23:11;;;;;;;12.88;7.93;;;;;;;18.70;53.42;101849.63;4948788;28;20057;-44
2023/06/06 11:25:38;;;;;;;17.73;8.60;;;;;;;18.82;54.10;101849.44;4950740;29;20069;-42
2023/06/06 11:28:05;;;;;;;13.90;8.38;;;;;;;19.01;54.11;101850.56;4952312;29;20046;-43